Time;durP1;ratioP1;P1;durP2;ratioP2;P2;SDS_P1;SDS_P2;PMS_P1;PMS_P2;Temp;Humidity;BMP_temperature;BMP_pressure;BME280_temperature;BME280_humidity;BME280_pressure;Samples;Min_cycle;Max_cycle;Signal;HPM_P1;HPM_P2
2022/03/10 00:00:50;;;;;;;47.72;17.05;;;;;;;1.12;77.75;100089.13;3024531;29;20054;-71
2022/03/10 00:02:22;;;;;;;43.78;15.60;;;;;;;1.09;77.56;100091.69;3028499;29;20057;-70
2022/03/10 00:03:54;;;;;;;44.40;15.77;;;;;;;0.98;77.61;100077.19;3027314;29;20064;-70
2022/03/10 00:05:26;;;;;;;41.65;16.48;;;;;;;1.08;77.40;100097.69;3032912;29;20045;-70
2022/03/10 00:06:59;;;;;;;38.33;14.07;;;;;;;0.96;77.28;100077.19;3030605;29;20053;-70
2022/03/10 00:08:33;;;;;;;44.83;15.27;;;;;;;0.78;76.96;100052.44;3032504;29;20053;-70
2022/03/10 00:10:05;;;;;;;39.15;16.02;;;;;;;1.01;77.10;100095.16;3034216;29;20075;-71
2022/03/10 00:11:37;;;;;;;41.28;15.70;;;;;;;1.00;77.24;100094.25;3038699;29;20056;-71
2022/03/10 00:13:09;;;;;;;42.40;15.77;;;;;;;1.02;76.93;100096.84;3038128;29;20060;-70
2022/03/10 00:14:41;;;;;;;35.55;15.05;;;;;;;1.03;76.88;100089.13;3038316;29;20120;-71
2022/03/10 00:16:13;;;;;;;34.70;13.95;;;;;;;0.91;76.71;100069.50;3038613;29;20108;-71
2022/03/10 00:17:45;;;;;;;27.10;11.75;;;;;;;1.02;76.24;100089.16;3038204;29;20056;-71
2022/03/10 00:19:17;;;;;;;37.00;13.38;;;;;;;1.01;76.00;100096.00;3038193;29;20067;-71
2022/03/10 00:20:49;;;;;;;35.10;11.45;;;;;;;0.88;75.77;100078.91;3038332;29;20155;-70
2022/03/10 00:22:20;;;;;;;26.95;11.63;;;;;;;0.98;75.40;100095.16;3037069;29;20538;-71
2022/03/10 00:23:54;;;;;;;26.58;11.23;;;;;;;1.00;75.24;100096.81;3038093;29;20064;-71
2022/03/10 00:25:26;;;;;;;31.92;11.75;;;;;;;0.98;75.09;100100.28;3037997;29;20108;-71
2022/03/10 00:26:57;;;;;;;26.27;11.52;;;;;;;0.96;74.83;100095.13;3038097;29;20522;-70
2022/03/10 00:28:28;;;;;;;25.70;10.82;;;;;;;0.97;74.64;100091.72;3038295;29;20092;-71
2022/03/10 00:29:59;;;;;;;26.63;10.55;;;;;;;0.96;74.32;100096.84;3037975;29;20267;-71
2022/03/10 00:31:31;;;;;;;23.85;11.20;;;;;;;0.95;74.13;100101.13;3032454;29;20930;-71
2022/03/10 00:33:03;;;;;;;23.95;10.15;;;;;;;0.82;73.55;100077.19;3037862;29;20144;-71
2022/03/10 00:34:35;;;;;;;22.63;10.15;;;;;;;0.84;73.33;100082.34;3042242;29;20399;-71
2022/03/10 00:36:07;;;;;;;22.08;9.27;;;;;;;0.75;73.04;100062.69;3037909;29;20056;-71
2022/03/10 00:37:38;;;;;;;17.33;9.10;;;;;;;0.89;72.91;100080.63;3035362;29;20211;-71
2022/03/10 00:39:11;;;;;;;19.77;9.23;;;;;;;0.97;72.62;100088.28;3038071;29;20445;-71
2022/03/10 00:40:46;;;;;;;22.13;9.57;;;;;;;0.95;72.13;100095.13;3037938;29;20052;-70
2022/03/10 00:42:16;;;;;;;17.42;7.63;;;;;;;0.89;71.70;100091.75;3037913;29;20063;-70
2022/03/10 00:43:48;;;;;;;19.20;8.23;;;;;;;0.90;71.51;100090.88;3038287;29;20063;-70
2022/03/10 00:45:20;;;;;;;17.20;8.32;;;;;;;0.54;71.18;100027.69;3038385;29;20056;-70
2022/03/10 00:46:52;;;;;;;16.88;7.30;;;;;;;0.90;71.16;100084.88;3037757;29;20056;-70
2022/03/10 00:48:24;;;;;;;14.43;6.93;;;;;;;0.85;70.83;100074.63;3037850;29;20446;-70
2022/03/10 00:49:55;;;;;;;15.35;7.30;;;;;;;0.94;70.44;100091.72;3037714;29;20057;-70
2022/03/10 00:51:27;;;;;;;13.48;6.72;;;;;;;0.94;70.14;100088.28;3038063;29;20052;-70
2022/03/10 00:53:00;;;;;;;14.25;7.25;;;;;;;0.67;69.89;100047.31;3038507;29;20162;-70
2022/03/10 00:54:33;;;;;;;14.38;6.97;;;;;;;0.91;69.58;100076.34;3037707;29;20052;-70
2022/03/10 00:56:05;;;;;;;11.18;6.43;;;;;;;0.93;69.38;100086.59;3038002;29;20127;-70
2022/03/10 00:57:38;;;;;;;14.88;7.28;;;;;;;0.80;69.35;100068.69;3037922;29;20124;-70
2022/03/10 00:59:10;;;;;;;13.73;6.90;;;;;;;0.82;69.32;100060.97;3037775;29;20068;-70
2022/03/10 01:00:42;;;;;;;13.15;6.30;;;;;;;0.94;69.01;100084.03;3037909;29;20555;-70
2022/03/10 01:02:13;;;;;;;13.77;6.85;;;;;;;0.95;68.98;100090.88;3037816;29;20063;-69
2022/03/10 01:03:45;;;;;;;13.13;6.45;;;;;;;0.95;68.86;100080.63;3037328;29;20063;-70
2022/03/10 01:05:15;;;;;;;15.13;6.38;;;;;;;0.94;69.02;100085.72;3037963;29;20052;-70
2022/03/10 01:06:47;;;;;;;14.10;6.35;;;;;;;0.88;68.92;100064.38;3037816;29;20143;-70
2022/03/10 01:08:19;;;;;;;13.05;6.82;;;;;;;0.62;68.73;100018.28;3032201;29;20081;-70
2022/03/10 01:09:52;;;;;;;10.13;5.93;;;;;;;1.01;68.41;100075.47;3036589;29;20065;-70
2022/03/10 01:11:24;;;;;;;13.88;6.90;;;;;;;0.98;68.58;100074.63;3037651;29;20055;-70
2022/03/10 01:12:56;;;;;;;10.60;6.10;;;;;;;1.00;68.31;100071.19;3036530;29;20056;-69
2022/03/10 01:14:28;;;;;;;12.32;6.63;;;;;;;0.97;68.16;100067.78;3038124;29;20120;-70
2022/03/10 01:16:00;;;;;;;18.85;7.53;;;;;;;0.94;68.18;100063.50;3037510;29;20068;-70
2022/03/10 01:17:31;;;;;;;15.73;7.53;;;;;;;0.39;68.00;99976.47;3037785;29;20089;-70
2022/03/10 01:19:03;;;;;;;13.43;6.65;;;;;;;1.01;67.91;100067.78;3037647;29;20049;-70
2022/03/10 01:20:35;;;;;;;16.92;7.20;;;;;;;1.03;67.66;100072.91;3031585;29;20146;-70
2022/03/10 01:22:07;;;;;;;13.88;6.50;;;;;;;1.04;67.59;100069.50;3037599;29;20423;-70
2022/03/10 01:23:39;;;;;;;12.63;6.32;;;;;;;1.02;67.47;100072.03;3037576;29;20136;-70
2022/03/10 01:25:13;;;;;;;12.85;5.95;;;;;;;1.05;67.41;100069.47;3037612;29;20060;-70
2022/03/10 01:26:44;;;;;;;;;;;;;;;0.87;67.60;100069.50;3038080;29;20076;-70
2022/03/10 01:28:16;;;;;;;13.05;5.82;;;;;;;0.89;67.79;100073.78;3036924;29;19923;-70
2022/03/10 01:29:48;;;;;;;12.27;6.05;;;;;;;0.89;67.21;100067.81;3037608;29;20056;-70
2022/03/10 01:31:20;;;;;;;10.57;5.05;;;;;;;0.93;66.32;100074.63;3037615;29;20519;-70
2022/03/10 01:32:52;;;;;;;8.93;4.30;;;;;;;0.92;65.97;100075.50;3037245;29;20060;-70
2022/03/10 01:34:24;;;;;;;9.43;4.75;;;;;;;0.89;65.34;100076.34;3037941;29;20120;-70
2022/03/10 01:35:55;;;;;;;8.50;4.32;;;;;;;0.89;65.09;100078.06;3037431;29;20144;-70
2022/03/10 01:37:26;;;;;;;8.70;4.85;;;;;;;0.87;64.90;100072.94;3037849;29;20060;-70
2022/03/10 01:39:03;;;;;;;8.40;4.40;;;;;;;0.81;64.22;100065.25;3037303;29;20091;-70
2022/03/10 01:40:36;;;;;;;7.55;3.97;;;;;;;0.85;64.15;100076.34;3037346;29;20128;-70
2022/03/10 01:42:08;;;;;;;8.10;4.13;;;;;;;0.74;64.00;100065.25;3037583;29;20049;-70
2022/03/10 01:43:57;;;;;;;9.98;4.90;;;;;;;0.78;63.50;100077.22;3037783;29;20056;-70
2022/03/10 01:45:29;;;;;;;7.55;4.13;;;;;;;0.73;63.84;100071.22;3034033;29;20086;-71
2022/03/10 01:47:01;;;;;;;8.65;4.55;;;;;;;0.68;63.65;100051.59;3037413;29;20108;-71
2022/03/10 01:48:33;;;;;;;11.25;5.32;;;;;;;0.78;63.41;100074.66;3037233;29;20212;-69
2022/03/10 01:50:06;;;;;;;7.05;4.20;;;;;;;0.71;62.70;100060.13;3035835;29;20076;-69
2022/03/10 01:51:38;;;;;;;;;;;;;;;0.58;63.29;100075.50;3037223;29;20049;-69
2022/03/10 01:53:10;;;;;;;6.68;3.85;;;;;;;0.58;63.26;100065.25;3037075;29;19933;-71
2022/03/10 01:54:42;;;;;;;8.35;4.05;;;;;;;0.60;62.91;100058.44;3037465;29;20056;-71
2022/03/10 01:56:16;;;;;;;6.35;3.63;;;;;;;0.72;62.53;100072.09;3037269;29;20067;-71
2022/03/10 01:57:48;;;;;;;6.75;4.05;;;;;;;0.71;62.45;100076.38;3037161;29;20052;-70
2022/03/10 01:59:22;;;;;;;9.13;4.28;;;;;;;0.67;62.38;100060.13;3037363;29;20268;-70
2022/03/10 02:00:54;;;;;;;6.57;3.50;;;;;;;0.73;62.33;100073.78;3037271;29;20057;-70
2022/03/10 02:02:25;;;;;;;7.20;4.32;;;;;;;0.73;61.93;100071.22;3037756;29;20226;-70
2022/03/10 02:03:58;;;;;;;7.28;4.20;;;;;;;0.71;61.63;100070.38;3037033;29;20226;-70
2022/03/10 02:05:31;;;;;;;6.43;3.95;;;;;;;0.71;61.44;100075.50;3037338;29;20080;-70
2022/03/10 02:07:04;;;;;;;7.60;4.45;;;;;;;0.73;61.19;100084.06;3037184;29;20048;-70
2022/03/10 02:10:26;;;;;;;5.97;3.33;;;;;;;0.58;61.02;100055.00;3031322;29;20148;-70
2022/03/10 02:12:00;;;;;;;7.60;3.78;;;;;;;0.68;61.04;100073.78;3025554;29;20148;-70
2022/03/10 02:13:32;;;;;;;7.07;3.97;;;;;;;0.68;60.92;100071.22;3026228;29;20101;-70
2022/03/10 02:17:21;;;;;;;5.85;3.55;;;;;;;0.59;60.92;100061.84;3025708;29;20056;-71
2022/03/10 02:18:53;;;;;;;6.00;3.53;;;;;;;0.59;60.93;100069.53;3025637;29;20171;-70
2022/03/10 02:20:24;;;;;;;7.07;3.65;;;;;;;0.62;60.67;100066.97;3025948;29;20118;-70
2022/03/10 02:21:57;;;;;;;5.13;3.13;;;;;;;0.23;60.54;100004.63;3030568;29;20060;-70
2022/03/10 02:23:30;;;;;;;5.45;3.20;;;;;;;0.55;60.41;100055.00;3026483;29;20083;-70
2022/03/10 02:25:02;;;;;;;;;;;;;;;0.45;60.29;100066.97;3028180;29;20049;-70
2022/03/10 02:26:33;;;;;;;6.15;3.17;;;;;;;0.48;60.79;100071.25;3031943;29;20027;-70
2022/03/10 02:28:06;;;;;;;7.00;3.83;;;;;;;0.31;60.58;100029.41;3031523;29;20074;-70
2022/03/10 02:29:38;;;;;;;6.75;3.75;;;;;;;0.52;60.43;100067.81;3025605;29;20439;-69
2022/03/10 02:31:10;;;;;;;9.02;3.50;;;;;;;0.55;60.47;100064.41;3024267;29;20121;-69
2022/03/10 02:32:41;;;;;;;6.30;3.47;;;;;;;0.55;60.54;100070.38;3025673;29;20057;-70
2022/03/10 02:34:13;;;;;;;8.27;3.88;;;;;;;0.56;60.29;100068.66;3030186;29;20373;-70
2022/03/10 02:35:45;;;;;;;7.60;3.45;;;;;;;0.51;60.44;100063.56;3027564;29;20452;-69
2022/03/10 02:37:16;;;;;;;7.25;3.50;;;;;;;0.55;60.51;100070.38;3026871;29;20159;-69
2022/03/10 02:38:50;;;;;;;7.63;3.67;;;;;;;0.60;60.41;100067.84;3028742;29;20053;-69
2022/03/10 02:40:22;;;;;;;6.90;3.65;;;;;;;0.55;60.52;100074.66;3025671;29;20061;-70
2022/03/10 02:41:53;;;;;;;8.40;3.63;;;;;;;0.57;60.57;100075.53;3024648;29;20081;-70
2022/03/10 02:43:25;;;;;;;7.40;3.50;;;;;;;0.54;60.60;100068.69;3025341;29;20465;-70
2022/03/10 02:44:56;;;;;;;6.10;2.95;;;;;;;0.52;60.52;100066.97;3026493;29;20436;-70
2022/03/10 02:46:27;;;;;;;7.30;3.65;;;;;;;0.45;60.79;100058.44;3029516;29;20104;-71
2022/03/10 02:47:59;;;;;;;5.68;3.20;;;;;;;0.46;60.69;100055.00;3029507;29;20060;-70
2022/03/10 02:49:31;;;;;;;7.28;3.45;;;;;;;0.55;60.94;100070.38;3026681;29;20053;-70
2022/03/10 02:51:03;;;;;;;6.18;3.63;;;;;;;0.42;60.60;100054.16;3027965;29;20935;-70
2022/03/10 02:52:34;;;;;;;7.18;3.80;;;;;;;0.25;60.60;100025.13;3025616;29;20118;-71
2022/03/10 02:54:08;;;;;;;6.72;3.55;;;;;;;0.46;60.75;100070.38;3026199;29;20072;-70
2022/03/10 02:55:40;;;;;;;6.70;3.20;;;;;;;0.50;60.79;100090.03;3030552;29;20076;-70
2022/03/10 02:57:12;;;;;;;5.88;3.30;;;;;;;0.47;60.60;100086.59;3025343;29;20057;-70
2022/03/10 02:58:44;;;;;;;7.55;3.33;;;;;;;0.42;60.46;100081.50;3025219;29;20049;-69
2022/03/10 03:00:18;;;;;;;7.30;3.30;;;;;;;0.20;60.33;100052.44;3024949;29;20515;-70
2022/03/10 03:01:49;;;;;;;8.07;3.53;;;;;;;0.41;60.63;100087.47;3029085;29;20056;-70
2022/03/10 03:03:21;;;;;;;6.88;3.47;;;;;;;0.41;60.66;100090.03;3025101;29;20057;-70
2022/03/10 03:04:52;;;;;;;7.90;3.00;;;;;;;0.41;60.47;100087.47;3027030;29;20124;-70
2022/03/10 03:06:24;;;;;;;6.57;3.13;;;;;;;0.36;60.60;100086.63;3027233;29;20523;-70
2022/03/10 03:07:56;;;;;;;7.20;3.60;;;;;;;0.35;60.26;100090.88;3025103;29;20059;-70
2022/03/10 03:09:29;;;;;;;7.57;3.72;;;;;;;0.37;60.37;100096.00;3029813;29;20144;-69
2022/03/10 03:11:01;;;;;;;6.32;3.28;;;;;;;0.36;60.63;100094.31;3025011;29;20133;-70
2022/03/10 03:12:32;;;;;;;7.45;3.38;;;;;;;0.36;60.53;100094.31;3017249;29;20056;-69
2022/03/10 03:14:04;;;;;;;7.50;3.60;;;;;;;0.37;60.27;100098.56;3014695;29;20362;-70
2022/03/10 03:15:37;;;;;;;6.22;3.58;;;;;;;0.18;60.25;100060.13;3009072;29;20133;-70
2022/03/10 03:17:08;;;;;;;6.03;3.37;;;;;;;0.33;60.47;100086.63;3014914;29;20045;-69
2022/03/10 03:18:40;;;;;;;4.78;3.10;;;;;;;0.38;60.38;100101.13;3015032;29;20316;-70
2022/03/10 03:20:14;;;;;;;8.88;3.60;;;;;;;0.38;60.28;100098.56;3017197;29;20091;-70
2022/03/10 03:21:46;;;;;;;5.57;3.28;;;;;;;0.38;60.43;100095.13;3015909;29;20057;-71
2022/03/10 03:23:18;;;;;;;6.63;3.03;;;;;;;0.37;60.27;100090.88;3006896;29;20439;-70
2022/03/10 03:24:52;;;;;;;7.22;3.53;;;;;;;0.30;60.00;100084.06;3008571;29;20114;-71
2022/03/10 03:26:22;;;;;;;;;;;;;;;0.18;60.19;100095.13;3013386;29;20059;-71
2022/03/10 03:27:55;;;;;;;5.90;3.17;;;;;;;0.24;60.37;100087.47;3016134;29;20394;-71
2022/03/10 03:29:27;;;;;;;6.03;3.35;;;;;;;0.05;60.19;100058.38;3015898;29;20496;-70
2022/03/10 03:30:59;;;;;;;6.32;3.25;;;;;;;0.33;60.07;100102.84;3009563;29;20053;-70
2022/03/10 03:32:31;;;;;;;5.18;3.22;;;;;;;0.35;59.98;100100.25;3013584;29;20860;-71
2022/03/10 03:34:09;;;;;;;6.03;3.40;;;;;;;0.35;59.70;100103.69;3015743;29;20088;-71
2022/03/10 03:35:42;;;;;;;4.53;2.75;;;;;;;0.32;59.41;100095.13;3014995;29;20140;-71
2022/03/10 03:37:14;;;;;;;8.15;3.05;;;;;;;0.34;59.24;100101.97;3011923;29;20413;-71
2022/03/10 03:38:45;;;;;;;6.90;3.00;;;;;;;0.33;58.88;100096.88;3012776;29;20148;-71
2022/03/10 03:40:18;;;;;;;9.13;4.82;;;;;;;0.32;59.21;100101.09;3015150;29;20057;-71
2022/03/10 03:41:50;;;;;;;6.40;3.63;;;;;;;0.27;58.97;100089.16;3011927;29;20049;-71
2022/03/10 03:43:22;;;;;;;5.53;2.83;;;;;;;0.33;58.83;100104.56;3015538;29;20064;-71
2022/03/10 03:44:54;;;;;;;4.55;2.88;;;;;;;0.30;58.69;100102.84;3014905;29;20743;-71
2022/03/10 03:46:26;;;;;;;9.75;2.95;;;;;;;0.30;58.52;100107.09;3015390;29;20057;-71
2022/03/10 03:47:58;;;;;;;5.68;3.00;;;;;;;0.30;58.38;100107.09;3015318;29;20057;-70
2022/03/10 03:49:30;;;;;;;5.30;2.75;;;;;;;0.21;58.45;100098.56;3013852;29;20124;-70
2022/03/10 03:51:02;;;;;;;8.40;3.33;;;;;;;0.05;58.44;100076.31;3014027;29;20057;-68
2022/03/10 03:52:35;;;;;;;6.63;2.75;;;;;;;0.26;58.28;100105.38;3014913;29;20067;-71
2022/03/10 03:54:07;;;;;;;6.07;3.33;;;;;;;0.25;58.49;100112.22;3014233;29;20121;-70
2022/03/10 03:55:41;;;;;;;7.35;3.33;;;;;;;0.27;58.44;100112.19;3014592;29;20107;-70
2022/03/10 03:57:13;;;;;;;6.93;3.33;;;;;;;0.25;58.47;100112.22;3014262;29;20234;-70
2022/03/10 03:58:45;;;;;;;8.57;3.42;;;;;;;0.22;58.37;100112.22;3012838;29;20065;-70
2022/03/10 04:00:16;;;;;;;6.40;3.40;;;;;;;0.26;58.61;100118.19;3019047;29;20056;-69
2022/03/10 04:01:49;;;;;;;8.43;3.55;;;;;;;0.27;58.64;100115.63;3005524;29;20564;-69
2022/03/10 04:03:21;;;;;;;6.15;3.30;;;;;;;0.27;58.65;100133.56;3009485;29;20559;-70
2022/03/10 04:04:53;;;;;;;8.35;3.45;;;;;;;0.13;58.50;100107.91;3015868;29;20451;-69
2022/03/10 04:06:26;;;;;;;6.18;3.42;;;;;;;0.29;58.38;100129.28;3015258;29;20053;-70
2022/03/10 04:07:58;;;;;;;7.07;3.67;;;;;;;0.21;58.39;100121.59;3014947;29;20587;-70
2022/03/10 04:09:31;;;;;;;7.82;3.95;;;;;;;0.08;58.41;100098.50;3017194;29;20090;-70
2022/03/10 04:11:04;;;;;;;6.57;3.30;;;;;;;0.25;58.45;100134.41;3026001;29;20522;-69
2022/03/10 04:12:36;;;;;;;;;;;;;;;0.06;58.74;100134.38;3025577;29;20052;-70
2022/03/10 04:14:10;;;;;;;7.72;3.80;;;;;;;0.12;58.87;100136.06;3025867;29;20475;-70
2022/03/10 04:15:41;;;;;;;9.50;3.67;;;;;;;0.12;58.65;100128.38;3031007;29;20162;-70
2022/03/10 04:17:13;;;;;;;7.15;3.70;;;;;;;0.16;58.66;100133.53;3026833;29;20071;-70
2022/03/10 04:18:45;;;;;;;7.13;3.90;;;;;;;0.15;58.64;100136.09;3026570;29;20622;-70
2022/03/10 04:20:16;;;;;;;8.43;4.28;;;;;;;0.16;58.81;100135.25;3026895;29;20056;-69
2022/03/10 04:21:48;;;;;;;9.20;3.75;;;;;;;0.15;58.83;100141.22;3027384;29;20107;-70
2022/03/10 04:23:20;;;;;;;8.20;3.85;;;;;;;0.14;58.57;100140.34;3027524;29;20056;-69
2022/03/10 04:24:52;;;;;;;8.48;3.92;;;;;;;0.13;58.61;100146.34;3027288;29;20060;-70
2022/03/10 04:26:26;;;;;;;5.70;3.42;;;;;;;-0.09;58.78;100116.38;3027122;29;20534;-70
2022/03/10 04:27:59;;;;;;;5.95;3.20;;;;;;;0.08;58.83;100154.84;3027384;29;20052;-70
2022/03/10 04:29:32;;;;;;;10.15;3.63;;;;;;;0.05;58.94;100148.00;3027089;29;20056;-70
2022/03/10 04:31:04;;;;;;;8.93;3.40;;;;;;;0.06;58.80;100154.88;3026664;29;20483;-70
2022/03/10 04:32:47;;;;;;;7.13;3.53;;;;;;;0.07;58.81;100161.69;3027101;29;20056;-69
2022/03/10 04:34:19;;;;;;;8.07;3.65;;;;;;;0.02;58.87;100154.84;3026768;29;20146;-70
2022/03/10 04:35:51;;;;;;;6.80;3.45;;;;;;;-0.06;58.89;100142.00;3026887;29;20524;-69
2022/03/10 04:37:23;;;;;;;7.97;4.13;;;;;;;0.04;58.98;100164.22;3027255;29;20064;-70
2022/03/10 04:38:55;;;;;;;8.00;3.83;;;;;;;0.10;58.79;100161.69;3025831;29;20057;-70
2022/03/10 04:40:28;;;;;;;9.95;3.47;;;;;;;0.12;58.56;100171.91;3025997;29;20485;-69
2022/03/10 04:42:01;;;;;;;6.28;3.17;;;;;;;-0.12;58.60;100131.72;3025898;29;20067;-70
2022/03/10 04:43:33;;;;;;;;;;;;;;;-0.04;58.97;100179.56;3026226;29;20534;-69
2022/03/10 04:45:06;;;;;;;5.05;3.00;;;;;;;0.04;59.27;100182.16;3026631;29;20269;-70
2022/03/10 04:46:38;;;;;;;;;;;;;;;-0.06;59.29;100183.84;3027705;29;20091;-71
2022/03/10 04:48:10;;;;;;;6.93;3.28;;;;;;;-0.03;59.36;100172.72;3029321;29;19927;-71
2022/03/10 04:49:42;;;;;;;6.07;3.53;;;;;;;0.12;59.24;100190.72;3029532;29;20080;-70
2022/03/10 04:51:14;;;;;;;8.05;3.50;;;;;;;0.13;59.13;100194.16;3028244;29;20126;-70
2022/03/10 04:52:46;;;;;;;9.77;4.97;;;;;;;0.13;59.12;100195.00;3028391;29;20056;-70
2022/03/10 04:54:19;;;;;;;7.73;3.63;;;;;;;0.16;59.36;100197.56;3028336;29;20064;-69
2022/03/10 04:55:51;;;;;;;7.13;4.00;;;;;;;-0.01;59.23;100171.88;3028715;29;20340;-70
2022/03/10 04:57:24;;;;;;;8.80;3.78;;;;;;;0.23;58.84;100199.28;3029605;29;20601;-70
2022/03/10 04:58:56;;;;;;;7.38;3.80;;;;;;;0.25;58.99;100204.41;3029089;29;20607;-69
2022/03/10 05:00:29;;;;;;;6.05;2.80;;;;;;;0.25;58.88;100204.41;3032036;29;20060;-69
2022/03/10 05:02:00;;;;;;;6.93;3.35;;;;;;;0.26;58.81;100211.25;3026331;29;20533;-69
2022/03/10 05:03:33;;;;;;;6.93;3.83;;;;;;;0.04;58.78;100168.50;3028696;29;20546;-67
2022/03/10 05:05:05;;;;;;;8.70;3.85;;;;;;;0.28;58.83;100208.69;3027956;29;20064;-70
2022/03/10 05:06:37;;;;;;;8.02;4.00;;;;;;;0.18;58.85;100198.44;3037777;29;20057;-69
2022/03/10 05:08:09;;;;;;;7.57;3.78;;;;;;;0.32;58.79;100211.25;3037950;29;20079;-69
2022/03/10 05:09:41;;;;;;;6.63;3.55;;;;;;;0.35;58.73;100213.84;3033593;29;20069;-70
2022/03/10 05:11:13;;;;;;;8.32;4.22;;;;;;;0.42;58.70;100217.28;3028212;29;20049;-68
2022/03/10 05:12:48;;;;;;;7.60;4.20;;;;;;;0.23;58.28;100176.22;3026053;29;20109;-70
2022/03/10 05:14:19;;;;;;;8.70;4.28;;;;;;;0.44;58.55;100200.19;3026437;29;20049;-70
2022/03/10 05:15:51;;;;;;;9.35;4.45;;;;;;;0.58;58.26;100219.03;3025854;29;20057;-70
2022/03/10 05:17:24;;;;;;;8.90;3.72;;;;;;;0.61;58.18;100216.47;3025966;29;20144;-70
2022/03/10 05:18:55;;;;;;;8.18;3.40;;;;;;;0.63;58.08;100222.47;3026105;29;20049;-70
2022/03/10 05:20:28;;;;;;;6.35;3.17;;;;;;;0.66;57.77;100222.47;3026085;29;20057;-70
2022/03/10 05:22:00;;;;;;;6.50;3.67;;;;;;;0.71;57.76;100224.16;3025922;29;20109;-69
2022/03/10 05:23:32;;;;;;;7.80;3.70;;;;;;;0.62;57.40;100209.63;3026050;29;20049;-70
2022/03/10 05:25:04;;;;;;;8.50;3.53;;;;;;;0.80;57.48;100229.31;3025708;29;20485;-70
2022/03/10 05:26:37;;;;;;;8.80;3.20;;;;;;;0.84;57.21;100220.78;3026255;29;20061;-70
2022/03/10 05:28:14;;;;;;;7.18;3.83;;;;;;;0.90;57.24;100234.47;3025625;29;20060;-69
2022/03/10 05:29:45;;;;;;;8.60;3.97;;;;;;;0.92;57.12;100234.47;3025843;29;20061;-69
2022/03/10 05:31:17;;;;;;;6.30;3.78;;;;;;;0.89;57.16;100235.31;3026105;29;20125;-70
2022/03/10 05:32:50;;;;;;;11.05;3.47;;;;;;;0.59;56.89;100184.88;3025678;29;20048;-69
2022/03/10 05:34:22;;;;;;;8.63;4.03;;;;;;;0.85;57.06;100225.91;3026521;29;20324;-69
2022/03/10 05:35:54;;;;;;;7.77;3.77;;;;;;;0.91;57.00;100243.00;3022617;29;20128;-69
2022/03/10 05:37:26;;;;;;;6.65;3.75;;;;;;;0.89;57.04;100239.59;3025846;29;20564;-69
2022/03/10 05:38:58;;;;;;;11.18;4.60;;;;;;;0.91;57.12;100248.97;3025935;29;20105;-70
2022/03/10 05:40:29;;;;;;;7.18;3.83;;;;;;;0.93;57.01;100251.56;3025583;29;20057;-69
2022/03/10 05:42:01;;;;;;;11.27;3.92;;;;;;;0.90;57.06;100259.25;3025704;29;20061;-69
2022/03/10 05:43:35;;;;;;;8.98;4.35;;;;;;;0.92;57.08;100257.56;3026110;29;20053;-69
2022/03/10 05:45:07;;;;;;;;;;;;;;;0.71;57.10;100254.94;3025914;29;20515;-69
2022/03/10 05:46:39;;;;;;;10.82;4.13;;;;;;;0.79;57.39;100258.38;3025964;29;20003;-69
2022/03/10 05:48:11;;;;;;;24.13;11.85;;;;;;;0.84;57.18;100262.66;3019563;29;20061;-69
2022/03/10 05:49:43;;;;;;;17.10;8.27;;;;;;;0.86;57.24;100255.84;3026080;29;20368;-69
2022/03/10 05:51:14;;;;;;;15.55;6.88;;;;;;;0.89;57.14;100265.25;3025011;29;20156;-70
2022/03/10 05:52:47;;;;;;;17.67;8.45;;;;;;;0.91;56.84;100260.94;3024485;29;20049;-69
2022/03/10 05:54:18;;;;;;;29.02;13.23;;;;;;;0.93;56.76;100263.53;3025757;29;20053;-70
2022/03/10 05:55:51;;;;;;;28.13;13.48;;;;;;;0.84;56.63;100238.72;3025443;29;20057;-70
2022/03/10 05:57:22;;;;;;;26.48;12.50;;;;;;;0.91;56.48;100255.81;3025373;29;20458;-70
2022/03/10 05:58:56;;;;;;;15.50;7.65;;;;;;;0.98;56.49;100262.69;3025007;29;20448;-70
2022/03/10 06:00:27;;;;;;;15.43;7.88;;;;;;;0.97;56.52;100260.97;3025612;29;20515;-70
2022/03/10 06:01:59;;;;;;;19.48;8.13;;;;;;;0.88;56.62;100243.00;3025689;29;20056;-70
2022/03/10 06:03:31;;;;;;;15.23;7.07;;;;;;;1.06;56.45;100267.81;3025682;29;20057;-70
2022/03/10 06:05:05;;;;;;;14.73;6.80;;;;;;;1.06;56.35;100254.97;3025537;29;20440;-70
2022/03/10 06:06:36;;;;;;;;;;;;;;;0.97;56.89;100275.50;3030671;29;20141;-70
2022/03/10 06:08:09;;;;;;;14.93;7.40;;;;;;;1.01;56.72;100254.16;3022286;29;19923;-70
2022/03/10 06:09:41;;;;;;;13.37;6.03;;;;;;;1.04;56.60;100249.88;3029410;29;20628;-70
2022/03/10 06:11:13;;;;;;;25.38;10.18;;;;;;;1.25;56.31;100264.41;3028488;29;20325;-70
2022/03/10 06:12:45;;;;;;;31.10;12.48;;;;;;;1.26;55.98;100249.88;3025426;29;20053;-70
2022/03/10 06:14:19;;;;;;;18.75;9.07;;;;;;;1.47;55.77;100266.97;3030354;29;20052;-70
2022/03/10 06:15:50;;;;;;;14.55;6.13;;;;;;;1.55;55.82;100262.69;3027576;29;20096;-70
2022/03/10 06:17:22;;;;;;;11.30;5.22;;;;;;;1.70;55.43;100266.94;3030248;29;20060;-69
2022/03/10 06:18:54;;;;;;;11.15;5.25;;;;;;;1.76;55.15;100261.81;3025466;29;20124;-70
2022/03/10 06:20:30;;;;;;;12.60;6.35;;;;;;;2.00;54.98;100274.56;3025709;29;20507;-70
2022/03/10 06:22:01;;;;;;;15.80;6.88;;;;;;;2.32;54.99;100265.06;3028860;29;20061;-70
2022/03/10 06:23:33;;;;;;;14.40;6.78;;;;;;;3.28;55.12;100276.47;3025471;29;20049;-70
2022/03/10 06:25:06;;;;;;;12.73;7.55;;;;;;;4.72;54.61;100265.47;3029487;29;20053;-70
2022/03/10 06:26:39;;;;;;;14.10;7.10;;;;;;;5.97;52.68;100247.97;3019958;29;20069;-71
2022/03/10 06:28:10;;;;;;;12.30;5.72;;;;;;;7.43;51.06;100262.03;3030188;29;20052;-71
2022/03/10 06:29:44;;;;;;;12.35;6.35;;;;;;;8.97;48.77;100265.56;3025044;29;20053;-71
2022/03/10 06:31:16;;;;;;;10.00;6.72;;;;;;;10.32;46.33;100253.19;3026745;29;20052;-71
2022/03/10 06:32:48;;;;;;;8.82;6.13;;;;;;;11.64;43.83;100261.03;3036190;29;20052;-71
2022/03/10 06:34:20;;;;;;;10.32;6.85;;;;;;;12.80;41.59;100257.63;3026871;29;20049;-72
2022/03/10 06:35:52;;;;;;;12.63;7.45;;;;;;;13.75;39.88;100235.50;3029301;29;20534;-71
2022/03/10 06:37:23;;;;;;;10.45;6.95;;;;;;;14.80;38.28;100230.81;3025185;29;20104;-71
2022/03/10 06:38:55;;;;;;;14.75;6.97;;;;;;;15.83;36.67;100257.28;3032281;29;20447;-72
2022/03/10 06:40:27;;;;;;;11.20;6.50;;;;;;;16.64;35.27;100255.84;3025791;29;20120;-71
2022/03/10 06:41:59;;;;;;;9.20;6.50;;;;;;;17.42;34.42;100256.94;3024164;29;20052;-71
2022/03/10 06:43:31;;;;;;;9.90;6.65;;;;;;;18.05;33.15;100262.41;3024734;29;20056;-70
2022/03/10 06:45:05;;;;;;;9.00;6.85;;;;;;;18.53;32.00;100257.28;3024495;29;20540;-71
2022/03/10 06:46:37;;;;;;;8.43;6.55;;;;;;;18.94;31.15;100256.97;3023788;29;20057;-71
2022/03/10 06:48:10;;;;;;;7.82;6.18;;;;;;;19.37;29.95;100266.16;3024799;29;20071;-71
2022/03/10 06:49:43;;;;;;;12.23;6.10;;;;;;;19.89;29.52;100268.38;3024191;29;20137;-71
2022/03/10 06:51:14;;;;;;;8.00;6.25;;;;;;;20.31;28.80;100276.59;3023375;29;20109;-71
2022/03/10 06:52:46;;;;;;;8.77;6.55;;;;;;;20.36;27.67;100271.78;3023913;29;20121;-70
2022/03/10 06:54:18;;;;;;;9.68;6.22;;;;;;;19.87;27.65;100241.22;3024408;29;20056;-70
2022/03/10 06:55:50;;;;;;;9.30;6.72;;;;;;;19.32;27.10;100280.56;3023783;29;20072;-70
2022/03/10 06:57:22;;;;;;;9.35;6.70;;;;;;;18.20;28.00;100282.44;3023522;29;20056;-70
2022/03/10 06:58:54;;;;;;;8.88;6.32;;;;;;;17.04;28.58;100283.97;3023725;29;20060;-71
2022/03/10 07:00:27;;;;;;;10.23;7.35;;;;;;;16.05;29.58;100284.88;3023803;29;20060;-70
2022/03/10 07:01:59;;;;;;;11.65;7.63;;;;;;;15.04;30.54;100283.69;3023224;29;20489;-70
2022/03/10 07:03:31;;;;;;;9.52;6.50;;;;;;;14.09;31.28;100287.00;3023335;29;20498;-71
2022/03/10 07:05:03;;;;;;;10.32;6.97;;;;;;;13.12;32.27;100288.31;3023516;29;20057;-70
2022/03/10 07:06:35;;;;;;;9.43;6.25;;;;;;;12.25;33.31;100293.19;3025538;29;20048;-70
2022/03/10 07:08:07;;;;;;;9.73;6.50;;;;;;;11.39;34.16;100298.56;3024261;29;20566;-70
2022/03/10 07:09:39;;;;;;;8.70;6.30;;;;;;;10.61;35.40;100291.16;3027260;29;20487;-70
2022/03/10 07:11:11;;;;;;;11.77;7.80;;;;;;;10.02;36.82;100293.25;3034462;29;20056;-70
2022/03/10 07:12:43;;;;;;;10.98;6.70;;;;;;;10.03;37.73;100296.72;3035940;29;20108;-72
2022/03/10 07:14:15;;;;;;;13.98;6.78;;;;;;;10.56;38.21;100300.91;3035781;29;20049;-72
2022/03/10 07:15:48;;;;;;;15.63;6.90;;;;;;;11.15;37.92;100297.75;3034879;29;20442;-71
2022/03/10 07:17:20;;;;;;;;;;;;;;;11.37;38.49;100301.22;3035938;29;20052;-72